Terminal Aerodrome Forecast
Issued by NWS

Home | Current Version | Previous Version | Text Only | Print | Product List | Glossary Off
Versions: 1 2 3 4 5 6 7 8 9 10 11 12 13 14 15 16

352
FTUS43 KIWX 221720
TAFSBN
TAF
KSBN 221720Z 2218/2318 31007KT P6SM SCT035 BKN150
     FM230800 29004KT 5SM BR SCT010 BKN025
     FM231400 31008KT P6SM BKN035=

USA.gov is the U.S. government's official web portal to all federal, state and local government web resources and services.